Time;durP1;ratioP1;P1;durP2;ratioP2;P2;SDS_P1;SDS_P2;PMS_P1;PMS_P2;Temp;Humidity;BMP_temperature;BMP_pressure;BME280_temperature;BME280_humidity;BME280_pressure;Samples;Min_cycle;Max_cycle;Signal;HPM_P1;HPM_P2
2023/05/23 00:01:36;;;;;;;5.60;4.05;;;23.70;72.80;;;;;;10825512;32;20027;-71
2023/05/23 00:07:38;;;;;;;7.00;4.25;;;23.70;72.70;;;;;;10830604;33;20500;-71
2023/05/23 00:13:41;;;;;;;7.07;4.90;;;23.80;73.00;;;;;;10826814;33;20032;-71
2023/05/23 00:19:44;;;;;;;6.95;5.18;;;23.70;73.10;;;;;;10831016;33;20440;-71
2023/05/23 00:25:51;;;;;;;6.72;5.03;;;23.50;73.20;;;;;;10825724;32;20046;-71
2023/05/23 00:31:53;;;;;;;7.62;5.50;;;23.50;73.40;;;;;;10826026;33;20058;-73
2023/05/23 00:37:55;;;;;;;6.82;5.15;;;23.40;74.00;;;;;;10825824;33;20020;-71
2023/05/23 00:43:58;;;;;;;7.22;5.35;;;23.20;74.80;;;;;;10829672;33;20055;-71
2023/05/23 00:50:00;;;;;;;12.57;6.45;;;23.10;75.20;;;;;;10829467;33;20023;-71
2023/05/23 00:56:03;;;;;;;7.03;4.90;;;23.00;75.10;;;;;;10824305;33;20032;-71
2023/05/23 01:02:05;;;;;;;11.70;7.22;;;22.80;75.10;;;;;;10829273;33;20020;-71
2023/05/23 01:08:07;;;;;;;8.60;6.30;;;22.80;75.00;;;;;;10829606;33;20020;-71
2023/05/23 01:14:34;;;;;;;8.77;5.35;;;23.00;74.40;;;;;;10826545;32;20077;-71
2023/05/23 01:21:01;;;;;;;8.57;6.57;;;23.00;75.00;;;;;;10829267;33;20017;-72
2023/05/23 01:27:29;;;;;;;10.13;7.00;;;22.90;75.70;;;;;;10827712;32;20024;-71
2023/05/23 01:33:34;;;;;;;8.88;6.15;;;23.00;75.30;;;;;;10825323;33;20059;-71
2023/05/23 01:39:37;;;;;;;12.35;7.28;;;22.90;75.30;;;;;;10828752;33;20043;-71
2023/05/23 01:45:39;;;;;;;8.50;5.97;;;22.90;75.10;;;;;;10828601;33;20061;-71
2023/05/23 01:51:42;;;;;;;7.12;5.78;;;22.80;75.10;;;;;;10827982;33;20382;-71
2023/05/23 01:57:48;;;;;;;9.20;6.22;;;22.80;74.90;;;;;;10828208;33;20047;-71
2023/05/23 02:03:50;;;;;;;9.80;6.82;;;22.80;74.80;;;;;;10824425;33;20039;-71
2023/05/23 02:09:52;;;;;;;8.75;6.85;;;22.70;75.30;;;;;;10827812;33;20023;-71
2023/05/23 02:15:54;;;;;;;8.18;6.32;;;22.70;75.40;;;;;;10827790;33;20035;-71
2023/05/23 02:21:56;;;;;;;7.35;5.85;;;22.60;75.30;;;;;;10825005;33;20036;-72
2023/05/23 02:27:59;;;;;;;7.62;4.53;;;22.50;75.70;;;;;;10823070;33;20051;-71
2023/05/23 02:34:01;;;;;;;9.23;7.40;;;22.40;76.00;;;;;;10823219;33;20032;-71
2023/05/23 02:40:06;;;;;;;12.82;6.25;;;22.40;76.30;;;;;;10822641;33;20024;-71
2023/05/23 02:46:08;;;;;;;8.88;6.47;;;22.30;76.10;;;;;;10823433;33;20028;-71
2023/05/23 02:52:11;;;;;;;11.05;6.32;;;22.30;76.20;;;;;;10823122;33;20064;-71
2023/05/23 02:58:17;;;;;;;6.03;4.75;;;22.30;75.70;;;;;;10823160;33;20020;-71
2023/05/23 03:04:20;;;;;;;6.65;5.20;;;22.20;75.80;;;;;;10812578;33;20078;-71
2023/05/23 03:10:22;;;;;;;8.52;5.75;;;22.00;75.90;;;;;;10822145;33;20027;-71
2023/05/23 03:16:24;;;;;;;8.35;6.40;;;21.90;76.20;;;;;;10825895;33;20029;-71
2023/05/23 03:22:26;;;;;;;7.47;5.30;;;21.80;76.10;;;;;;10812593;33;20318;-71
2023/05/23 03:28:30;;;;;;;9.30;6.18;;;21.80;76.10;;;;;;10820702;32;20051;-70
2023/05/23 03:34:32;;;;;;;6.10;4.57;;;21.80;76.20;;;;;;10824616;32;20051;-71
2023/05/23 03:40:34;;;;;;;8.07;5.87;;;21.70;76.40;;;;;;10825326;33;20040;-71
2023/05/23 03:46:36;;;;;;;7.75;5.70;;;21.70;76.40;;;;;;10825217;33;20025;-71
2023/05/23 03:52:39;;;;;;;8.25;5.75;;;21.60;76.40;;;;;;10812048;33;20054;-71
2023/05/23 03:58:41;;;;;;;9.48;6.07;;;21.60;76.40;;;;;;10824656;33;20066;-71
2023/05/23 04:04:44;;;;;;;10.25;6.93;;;21.60;76.70;;;;;;10823630;33;20341;-71
2023/05/23 04:10:45;;;;;;;8.30;6.25;;;21.70;76.60;;;;;;10811781;33;20035;-70
2023/05/23 04:16:49;;;;;;;16.92;8.38;;;21.60;76.40;;;;;;10823272;33;20389;-71
2023/05/23 04:22:53;;;;;;;9.73;6.85;;;21.50;76.40;;;;;;10823665;33;20345;-71
2023/05/23 04:28:55;;;;;;;7.50;5.82;;;21.50;76.80;;;;;;10819517;32;20036;-71
2023/05/23 04:34:57;;;;;;;8.25;6.35;;;21.50;76.80;;;;;;10824223;33;20406;-71
2023/05/23 04:41:00;;;;;;;11.77;7.03;;;21.50;76.90;;;;;;10823193;33;20086;-71
2023/05/23 04:47:02;;;;;;;10.02;7.57;;;21.60;76.90;;;;;;10826054;32;20032;-71
2023/05/23 04:53:04;;;;;;;7.95;5.80;;;21.80;76.60;;;;;;10829510;33;20036;-71
2023/05/23 04:59:20;;;;;;;14.27;8.55;;;21.60;76.70;;;;;;10825351;33;20058;-71
2023/05/23 05:05:23;;;;;;;8.95;6.28;;;21.60;77.00;;;;;;10827771;33;20050;-70
2023/05/23 05:11:26;;;;;;;11.27;7.60;;;21.60;77.00;;;;;;10828413;33;20028;-70
2023/05/23 05:17:29;;;;;;;11.07;7.90;;;21.80;77.10;;;;;;10828189;33;20020;-70
2023/05/23 05:23:33;;;;;;;10.15;7.57;;;21.80;76.90;;;;;;10827635;33;20023;-70
2023/05/23 05:29:35;;;;;;;7.28;5.50;;;21.80;76.80;;;;;;10827715;33;20032;-71
2023/05/23 05:35:37;;;;;;;8.57;5.85;;;21.80;76.80;;;;;;10827548;33;20054;-71
2023/05/23 05:41:40;;;;;;;8.18;5.85;;;22.00;76.70;;;;;;10828360;33;20056;-71
2023/05/23 05:47:44;;;;;;;9.45;5.95;;;22.30;76.60;;;;;;10823232;33;20333;-71
2023/05/23 05:53:48;;;;;;;7.10;5.35;;;22.40;76.60;;;;;;10827730;33;20050;-71
2023/05/23 05:59:51;;;;;;;6.95;4.85;;;22.60;76.40;;;;;;10826103;32;20032;-71
2023/05/23 06:05:53;;;;;;;10.93;6.12;;;22.70;76.40;;;;;;10800264;33;20338;-71
2023/05/23 06:11:55;;;;;;;7.55;5.47;;;22.80;76.40;;;;;;10789227;33;20036;-71
2023/05/23 06:17:57;;;;;;;6.90;5.22;;;23.00;76.50;;;;;;10789641;33;20032;-72
2023/05/23 06:24:00;;;;;;;7.05;4.68;;;23.20;76.60;;;;;;10789824;32;20102;-71
2023/05/23 06:30:03;;;;;;;7.37;5.07;;;23.30;76.60;;;;;;10789344;33;20358;-71
2023/05/23 06:36:05;;;;;;;7.75;5.37;;;23.40;76.60;;;;;;10803654;32;20044;-71
2023/05/23 06:42:07;;;;;;;7.72;4.07;;;23.50;76.00;;;;;;10821753;33;20023;-72
2023/05/23 06:48:49;;;;;;;5.47;4.25;;;23.50;75.90;;;;;;10709854;33;20067;-72
2023/05/23 06:54:51;;;;;;;4.90;3.20;;;23.60;75.40;;;;;;10711291;33;20383;-72
2023/05/23 07:00:54;;;;;;;6.10;4.28;;;23.70;75.90;;;;;;10712619;33;20033;-71
2023/05/23 07:06:57;;;;;;;5.20;3.12;;;23.80;75.40;;;;;;10808605;32;20334;-71
2023/05/23 07:12:59;;;;;;;6.53;4.18;;;23.90;75.50;;;;;;10825778;33;20441;-71
2023/05/23 07:19:17;;;;;;;;;;;24.00;75.60;;;;;;10825008;33;20021;-72
2023/05/23 07:25:22;;;;;;;6.22;3.47;;;24.10;75.10;;;;;;10605723;27;7354059;-71
2023/05/23 07:31:25;;;;;;;4.47;3.37;;;24.20;74.70;;;;;;10822949;33;20283;-71
2023/05/23 07:37:27;;;;;;;6.25;4.97;;;24.30;74.30;;;;;;10820325;33;20055;-71
2023/05/23 07:43:29;;;;;;;6.68;4.18;;;24.40;74.30;;;;;;10825321;33;20066;-72
2023/05/23 07:49:32;;;;;;;6.43;3.92;;;24.50;73.90;;;;;;10821891;33;20055;-71
2023/05/23 07:55:34;;;;;;;7.50;4.62;;;24.70;73.40;;;;;;10823787;33;20058;-71
2023/05/23 08:01:36;;;;;;;4.47;3.10;;;24.80;73.10;;;;;;10822816;33;20024;-72
2023/05/23 08:07:39;;;;;;;5.12;3.22;;;24.90;72.60;;;;;;10822434;33;20024;-71
2023/05/23 08:13:43;;;;;;;6.25;3.75;;;24.90;72.00;;;;;;10821060;33;20032;-72
2023/05/23 08:19:49;;;;;;;8.82;4.55;;;25.00;72.10;;;;;;10823727;32;20342;-72
2023/05/23 08:26:21;;;;;;;5.40;3.65;;;25.10;71.80;;;;;;10827833;32;20032;-70
2023/05/23 08:32:25;;;;;;;6.07;4.05;;;25.30;71.40;;;;;;10813619;33;20058;-71
2023/05/23 08:38:27;;;;;;;4.70;3.20;;;25.30;70.30;;;;;;10806527;33;20460;-71
2023/05/23 08:44:31;;;;;;;7.40;3.85;;;25.50;69.90;;;;;;10776463;33;20032;-71
2023/05/23 08:50:38;;;;;;;6.25;4.78;;;25.60;69.30;;;;;;10793339;33;20028;-70
2023/05/23 08:56:43;;;;;;;6.47;3.87;;;25.70;68.60;;;;;;10779654;33;20097;-70
2023/05/23 09:02:46;;;;;;;5.47;3.87;;;25.80;67.60;;;;;;10792907;33;20036;-70
2023/05/23 09:08:50;;;;;;;8.13;5.20;;;25.90;66.70;;;;;;10791622;33;20054;-71
2023/05/23 09:14:54;;;;;;;7.00;5.05;;;26.00;65.60;;;;;;10779590;33;20091;-71
2023/05/23 09:20:56;;;;;;;7.30;4.43;;;26.10;65.20;;;;;;10791597;33;20047;-70
2023/05/23 09:27:00;;;;;;;6.43;4.65;;;26.20;64.80;;;;;;10790713;33;20028;-71
2023/05/23 09:33:03;;;;;;;10.27;5.25;;;26.30;63.90;;;;;;10778220;33;20029;-72
2023/05/23 09:39:05;;;;;;;13.43;6.25;;;26.30;63.60;;;;;;10777836;33;20032;-72
2023/05/23 09:45:15;;;;;;;6.25;4.57;;;26.40;63.40;;;;;;10787883;33;20051;-72
2023/05/23 09:51:21;;;;;;;8.50;4.85;;;26.60;62.90;;;;;;10778288;33;20029;-72
2023/05/23 09:57:23;;;;;;;7.30;4.37;;;26.70;62.40;;;;;;10788838;33;20354;-71
2023/05/23 10:03:38;;;;;;;8.23;5.60;;;26.80;62.10;;;;;;10790200;33;20043;-71
2023/05/23 10:09:42;;;;;;;14.70;6.25;;;26.80;61.10;;;;;;10787832;33;20047;-71
2023/05/23 10:15:46;;;;;;;7.72;4.57;;;26.90;61.30;;;;;;10789265;33;20046;-71
2023/05/23 10:21:53;;;;;;;5.57;4.28;;;27.10;60.80;;;;;;10789797;33;20025;-71
2023/05/23 10:28:00;;;;;;;6.35;4.35;;;27.30;60.70;;;;;;10788515;33;20342;-71
2023/05/23 10:34:21;;;;;;;4.90;3.67;;;27.30;60.50;;;;;;10789898;33;20094;-72
2023/05/23 10:40:48;;;;;;;11.73;4.80;;;27.40;59.40;;;;;;10774604;33;20042;-71
2023/05/23 10:47:29;;;;;;;9.27;5.57;;;27.70;58.50;;;;;;10771878;33;20036;-71
2023/05/23 10:53:37;;;;;;;7.40;5.07;;;27.80;57.90;;;;;;10776774;33;20052;-71
2023/05/23 10:59:41;;;;;;;7.57;5.40;;;27.90;56.90;;;;;;10790270;33;20047;-72
2023/05/23 11:05:53;;;;;;;6.57;4.55;;;28.20;56.20;;;;;;10788295;33;20303;-71
2023/05/23 11:12:06;;;;;;;12.50;5.47;;;28.40;55.80;;;;;;10788591;33;20036;-70
2023/05/23 11:18:26;;;;;;;6.05;4.22;;;28.60;54.70;;;;;;10819139;33;20043;-71
2023/05/23 11:24:51;;;;;;;7.50;5.12;;;28.80;54.50;;;;;;10822969;32;20047;-71
2023/05/23 11:30:57;;;;;;;9.88;4.82;;;29.20;53.40;;;;;;10825467;33;20020;-71
2023/05/23 11:37:04;;;;;;;10.32;4.93;;;29.30;52.90;;;;;;10825361;33;20051;-71
2023/05/23 11:43:10;;;;;;;5.90;3.87;;;29.40;52.80;;;;;;10812211;33;20016;-71
2023/05/23 11:49:14;;;;;;;7.62;5.43;;;29.60;52.10;;;;;;10798155;33;20036;-70
2023/05/23 11:55:20;;;;;;;10.35;4.95;;;29.70;51.70;;;;;;10827838;32;20417;-72
2023/05/23 12:01:30;;;;;;;8.88;4.60;;;29.70;52.00;;;;;;10829978;33;20390;-70
2023/05/23 12:07:33;;;;;;;4.85;4.20;;;29.80;51.60;;;;;;10830342;33;20050;-71
2023/05/23 12:13:35;;;;;;;9.15;5.45;;;29.80;51.30;;;;;;10827752;33;20051;-71
2023/05/23 12:19:40;;;;;;;15.65;5.93;;;30.00;51.10;;;;;;10815182;33;20016;-71
2023/05/23 12:25:48;;;;;;;;;;;30.00;50.90;;;;;;10830728;32;20032;-71
2023/05/23 12:31:52;;;;;;;7.53;5.05;;;30.00;51.30;;;;;;10831300;33;19931;-70
2023/05/23 12:37:55;;;;;;;10.02;4.78;;;29.90;51.70;;;;;;10827302;33;20016;-71
2023/05/23 12:43:58;;;;;;;7.37;6.20;;;30.10;51.10;;;;;;10831041;33;20051;-70
2023/05/23 12:50:01;;;;;;;6.70;4.75;;;30.00;50.50;;;;;;10829321;33;20063;-71
2023/05/23 12:56:04;;;;;;;5.93;4.30;;;29.80;51.00;;;;;;10815478;33;20058;-70
2023/05/23 13:02:07;;;;;;;10.57;6.07;;;29.70;51.50;;;;;;10829887;33;20020;-71
2023/05/23 13:08:49;;;;;;;13.53;7.70;;;29.70;50.90;;;;;;10829597;32;20050;-70
2023/05/23 13:14:54;;;;;;;21.05;5.22;;;29.60;50.50;;;;;;10829042;33;20016;-69
2023/05/23 13:21:00;;;;;;;9.35;5.97;;;29.60;50.10;;;;;;10828067;33;20032;-72
2023/05/23 13:27:03;;;;;;;7.53;4.95;;;29.50;50.90;;;;;;10814602;33;20028;-70
2023/05/23 13:33:06;;;;;;;7.53;5.25;;;29.50;50.80;;;;;;10785327;33;20070;-70
2023/05/23 13:39:08;;;;;;;7.30;4.97;;;29.60;51.50;;;;;;10791546;33;20044;-70
2023/05/23 13:45:11;;;;;;;9.05;4.93;;;29.50;50.80;;;;;;10783912;33;20090;-70
2023/05/23 13:51:13;;;;;;;6.87;4.32;;;29.50;49.80;;;;;;10827699;33;20019;-72
2023/05/23 13:57:15;;;;;;;8.35;4.15;;;29.50;51.30;;;;;;10803786;33;20032;-71
2023/05/23 14:03:18;;;;;;;8.45;5.93;;;29.50;51.40;;;;;;10802251;33;20341;-71
2023/05/23 14:09:21;;;;;;;7.15;4.82;;;29.50;51.00;;;;;;10792663;33;20082;-72
2023/05/23 14:15:23;;;;;;;7.97;4.55;;;29.50;49.80;;;;;;10787049;32;20469;-74
2023/05/23 14:21:25;;;;;;;6.60;4.80;;;29.50;49.30;;;;;;10808072;32;20446;-72
2023/05/23 14:27:28;;;;;;;5.07;4.03;;;29.60;50.00;;;;;;10830260;32;20405;-73
2023/05/23 14:33:38;;;;;;;10.40;4.15;;;29.60;49.50;;;;;;10852554;32;20028;-72
2023/05/23 14:39:40;;;;;;;5.62;3.85;;;29.60;47.80;;;;;;10859744;32;20050;-71
2023/05/23 14:45:43;;;;;;;6.03;4.65;;;29.60;47.80;;;;;;10747176;33;20028;-72
2023/05/23 14:51:45;;;;;;;7.80;5.97;;;29.70;47.60;;;;;;10747399;33;20435;-73
2023/05/23 14:57:47;;;;;;;6.45;3.95;;;29.70;47.60;;;;;;10748797;33;20028;-71
2023/05/23 15:03:49;;;;;;;5.97;4.22;;;29.70;47.90;;;;;;10744139;33;20047;-71
2023/05/23 15:09:51;;;;;;;7.30;4.37;;;29.80;48.30;;;;;;10772308;33;20056;-70
2023/05/23 15:15:53;;;;;;;5.32;3.60;;;29.80;49.50;;;;;;10769329;33;20024;-72
2023/05/23 15:21:56;;;;;;;6.07;4.30;;;29.80;48.90;;;;;;10742010;33;20054;-72
2023/05/23 15:27:58;;;;;;;7.55;5.32;;;29.70;47.90;;;;;;10818701;27;20024;-72
2023/05/23 15:34:00;;;;;;;6.12;3.85;;;29.80;47.30;;;;;;10823491;33;20043;-72
2023/05/23 15:40:02;;;;;;;5.30;3.67;;;29.80;47.70;;;;;;10823825;33;20082;-70
2023/05/23 15:46:05;;;;;;;6.22;3.95;;;30.00;47.60;;;;;;10823913;33;20024;-73
2023/05/23 15:52:07;;;;;;;5.75;3.72;;;30.00;46.30;;;;;;10820399;33;20440;-72
2023/05/23 15:58:10;;;;;;;5.93;3.97;;;29.90;46.40;;;;;;10824633;33;20395;-72
2023/05/23 16:04:12;;;;;;;4.10;2.67;;;29.90;46.40;;;;;;10824137;33;20071;-72
2023/05/23 16:10:14;;;;;;;12.73;4.12;;;29.80;45.90;;;;;;10823334;33;20016;-72
2023/05/23 16:16:17;;;;;;;5.55;2.62;;;29.80;46.70;;;;;;10824668;33;20381;-72
2023/05/23 16:22:19;;;;;;;4.47;2.58;;;29.70;47.10;;;;;;10823714;33;20028;-71
2023/05/23 16:28:21;;;;;;;4.15;2.80;;;29.60;47.70;;;;;;10809837;33;20023;-71
2023/05/23 16:34:47;;;;;;;4.65;2.45;;;29.50;48.10;;;;;;10823679;33;20035;-71
2023/05/23 16:40:49;;;;;;;5.47;2.55;;;29.40;48.60;;;;;;10795454;33;20032;-71
2023/05/23 16:46:51;;;;;;;7.40;2.58;;;29.30;48.90;;;;;;10791686;33;20051;-71
2023/05/23 16:52:54;;;;;;;3.60;1.98;;;29.30;49.00;;;;;;10790810;33;20055;-71
2023/05/23 16:58:57;;;;;;;3.65;2.40;;;29.30;49.20;;;;;;10793399;33;20047;-71
2023/05/23 17:04:59;;;;;;;5.28;3.60;;;29.30;49.60;;;;;;10791984;33;20346;-70
2023/05/23 17:11:01;;;;;;;3.90;2.30;;;29.20;49.70;;;;;;10778404;33;20342;-71
2023/05/23 17:17:04;;;;;;;8.55;3.20;;;29.10;49.90;;;;;;10791919;33;20047;-70
2023/05/23 17:23:06;;;;;;;4.35;2.20;;;29.00;50.20;;;;;;10776678;32;20040;-70
2023/05/23 17:29:09;;;;;;;4.70;2.65;;;28.90;50.60;;;;;;10787526;33;20020;-70
2023/05/23 17:35:11;;;;;;;3.30;2.00;;;28.90;50.90;;;;;;10778534;32;20036;-71
2023/05/23 17:41:14;;;;;;;3.92;2.33;;;28.80;51.20;;;;;;10786397;33;20040;-72
2023/05/23 17:47:17;;;;;;;6.55;3.97;;;28.70;51.70;;;;;;10774465;33;20040;-71
2023/05/23 17:53:20;;;;;;;7.43;4.68;;;28.60;51.80;;;;;;10786459;33;20055;-71
2023/05/23 17:59:22;;;;;;;7.82;5.75;;;28.40;52.90;;;;;;10788233;33;20086;-71
2023/05/23 18:05:24;;;;;;;12.75;5.60;;;28.30;53.90;;;;;;10786550;33;20047;-70
2023/05/23 18:11:26;;;;;;;7.55;5.65;;;28.20;55.00;;;;;;10790390;33;20426;-72
2023/05/23 18:17:28;;;;;;;9.85;5.20;;;28.00;56.80;;;;;;10796057;33;20024;-70
2023/05/23 18:23:31;;;;;;;7.15;5.62;;;27.90;59.60;;;;;;10787454;33;20036;-70
2023/05/23 18:29:36;;;;;;;8.63;6.00;;;27.70;61.70;;;;;;10801187;33;20308;-70
2023/05/23 18:35:38;;;;;;;18.95;5.97;;;27.50;61.80;;;;;;10788717;33;20078;-71
2023/05/23 18:41:40;;;;;;;9.52;8.23;;;27.50;62.10;;;;;;10821063;33;20054;-70
2023/05/23 18:47:42;;;;;;;12.88;6.70;;;27.40;64.50;;;;;;10825975;33;20361;-72
2023/05/23 18:53:45;;;;;;;10.38;6.72;;;27.30;65.10;;;;;;10816536;33;20494;-72
2023/05/23 18:59:48;;;;;;;8.95;6.68;;;27.30;64.40;;;;;;10787687;33;20029;-71
2023/05/23 19:06:06;;;;;;;11.43;7.35;;;27.20;66.10;;;;;;10777915;33;20020;-70
2023/05/23 19:12:08;;;;;;;14.07;9.90;;;27.10;66.10;;;;;;10813790;33;20066;-72
2023/05/23 19:18:10;;;;;;;18.87;9.50;;;26.90;66.90;;;;;;10813746;33;20051;-73
2023/05/23 19:24:15;;;;;;;10.25;7.15;;;26.80;67.90;;;;;;10803628;32;20036;-70
2023/05/23 19:30:17;;;;;;;11.52;9.18;;;26.80;68.50;;;;;;10825884;33;20020;-69
2023/05/23 19:36:19;;;;;;;8.00;6.03;;;26.70;68.90;;;;;;10792940;33;20028;-70
2023/05/23 19:42:22;;;;;;;13.77;5.45;;;26.50;69.60;;;;;;10804364;32;20059;-71
2023/05/23 19:48:25;;;;;;;9.00;4.93;;;26.30;68.90;;;;;;10889157;32;20033;-72
2023/05/23 19:54:27;;;;;;;5.95;3.58;;;26.30;69.20;;;;;;10861181;32;20047;-69
2023/05/23 20:00:29;;;;;;;7.55;4.07;;;26.10;69.40;;;;;;10834129;32;20031;-70
2023/05/23 20:06:32;;;;;;;5.22;3.33;;;26.10;69.50;;;;;;10784680;33;20020;-70
2023/05/23 20:12:35;;;;;;;6.15;4.25;;;25.90;69.40;;;;;;10787209;33;20033;-70
2023/05/23 20:18:37;;;;;;;5.50;3.22;;;25.80;69.80;;;;;;10790599;33;20350;-71
2023/05/23 20:24:39;;;;;;;4.53;3.30;;;25.80;70.30;;;;;;10789892;33;20445;-72
2023/05/23 20:30:41;;;;;;;5.60;2.60;;;25.90;70.50;;;;;;10790288;33;20025;-72
2023/05/23 20:36:57;;;;;;;4.65;2.55;;;25.90;70.70;;;;;;10790620;33;20402;-72
2023/05/23 20:43:03;;;;;;;5.55;2.70;;;25.90;70.90;;;;;;10792068;33;20067;-72
2023/05/23 20:49:06;;;;;;;5.55;2.85;;;25.80;71.30;;;;;;10791205;33;20299;-73
2023/05/23 20:55:09;;;;;;;5.75;3.33;;;25.70;72.20;;;;;;10789744;33;20017;-72
2023/05/23 21:01:13;;;;;;;4.12;2.75;;;25.60;72.70;;;;;;10792502;33;20429;-71
2023/05/23 21:07:16;;;;;;;5.43;3.20;;;25.50;73.40;;;;;;10788221;33;20020;-72
2023/05/23 21:13:18;;;;;;;3.42;2.30;;;25.40;74.10;;;;;;10790964;33;20428;-71
2023/05/23 21:19:20;;;;;;;3.55;2.62;;;25.40;74.70;;;;;;10790789;33;20355;-71
2023/05/23 21:25:22;;;;;;;4.82;2.62;;;25.40;74.40;;;;;;10790729;33;20350;-71
2023/05/23 21:31:24;;;;;;;4.87;2.72;;;25.40;74.60;;;;;;10789906;33;20016;-71
2023/05/23 21:37:26;;;;;;;2.15;1.80;;;25.30;75.20;;;;;;10789907;33;20028;-71
2023/05/23 21:43:28;;;;;;;4.68;2.45;;;25.20;75.80;;;;;;10790152;33;20083;-73
2023/05/23 21:49:31;;;;;;;4.15;2.35;;;25.10;76.10;;;;;;10785924;33;20323;-71
2023/05/23 21:55:33;;;;;;;3.90;2.65;;;24.90;76.40;;;;;;10787336;33;20017;-71
2023/05/23 22:01:35;;;;;;;3.60;2.67;;;24.90;76.70;;;;;;10789904;33;20331;-70
2023/05/23 22:07:38;;;;;;;2.92;2.00;;;25.00;76.20;;;;;;10784510;33;20059;-71
2023/05/23 22:13:40;;;;;;;7.57;3.35;;;25.00;75.70;;;;;;10787900;33;20021;-71
2023/05/23 22:19:42;;;;;;;6.25;3.42;;;25.00;75.60;;;;;;10788646;33;20418;-71
2023/05/23 22:25:43;;;;;;;3.42;2.12;;;24.90;76.20;;;;;;10788475;33;20050;-71
2023/05/23 22:31:46;;;;;;;3.97;2.55;;;24.80;76.00;;;;;;10788560;33;20033;-71
2023/05/23 22:37:48;;;;;;;4.32;2.75;;;24.80;76.10;;;;;;10793865;32;20033;-71
2023/05/23 22:43:50;;;;;;;4.90;3.25;;;24.80;76.30;;;;;;10812066;33;20032;-71
2023/05/23 22:49:55;;;;;;;5.25;2.20;;;24.70;76.30;;;;;;10774649;33;20075;-71
2023/05/23 22:55:57;;;;;;;2.90;2.17;;;24.70;75.90;;;;;;10794160;32;20045;-71
2023/05/23 23:02:00;;;;;;;7.82;2.55;;;24.70;75.90;;;;;;10812648;33;20024;-71
2023/05/23 23:08:02;;;;;;;4.50;2.78;;;24.60;76.50;;;;;;10812386;33;20028;-71
2023/05/23 23:14:04;;;;;;;5.15;2.37;;;24.50;76.70;;;;;;10781534;33;20031;-71
2023/05/23 23:20:07;;;;;;;5.80;2.80;;;24.50;76.60;;;;;;10800993;33;20051;-71
2023/05/23 23:26:09;;;;;;;4.72;2.83;;;24.40;76.50;;;;;;10812729;27;20024;-71
2023/05/23 23:32:11;;;;;;;4.18;2.40;;;24.30;76.20;;;;;;10821070;32;20040;-71
2023/05/23 23:38:14;;;;;;;6.22;2.47;;;24.30;76.60;;;;;;10791466;33;20414;-71
2023/05/23 23:44:16;;;;;;;3.40;2.30;;;24.30;77.00;;;;;;10786508;33;20322;-71
2023/05/23 23:50:19;;;;;;;4.45;2.50;;;24.30;77.20;;;;;;10786562;33;20021;-71
2023/05/23 23:56:27;;;;;;;6.60;3.22;;;24.30;77.00;;;;;;10773201;33;20315;-71
